首页
METAR-TAF:

METAR-TAF

机场 :

開雲-羅尚博國際機場

開雲, 法屬圭亞那

纬度: 04-50N, 经度: 052-22W, 海拔: 105米

当前天气观测

该预报发布于28分钟前的10:30 UTC
静风
温度 24°C
湿度 100%
气压 1010 hPa
能见度10公里或以上
1500米以下无云,无积雨云

METAR: SOCA 151030Z AUTO 00000KT CAVOK 24/24 Q1010 TEMPO 2000 SHRA BKN010 BKN018TCU BECMG 10010KT

时间: 07:58 (10:58 UTC)

预报

该预报发布于6小时和58分钟前的04:00 UTC
预报有效从15日的 06点(UTC)到 16日的 06点(UTC)
风速2节,风向多变
能见度10公里或以上
1500米以下无云,无积雨云
几率 40% :
短暂存在
从 15日的 06点(UTC)到 15日的 12点(UTC)
能見度: 3000
多云层高于700英尺
多云层高于1500英尺, 塔状积云.
阵雨
从 15日的 1200点(UTC)
风速10节,风向
能见度10公里或以上
多云层高于2300英尺
短暂存在
从 15日的 12点(UTC)到 15日的 22点(UTC)
能見度: 2000
多云层高于1000英尺
多云层高于1800英尺, 塔状积云.
阵雨
几率 30% :
短暂存在
从 15日的 13点(UTC)到 15日的 18点(UTC)
风速15节,风向多变,有时为35节阵风
能見度: 1000
多云层高于600英尺
多云层高于1300英尺, 积雨云.
雷暴, 雨
从 15日的 2300点(UTC)
风速2节,风向多变
能见度10公里或以上
散云层高于2000英尺
短暂存在
从 16日的 05点(UTC)到 16日的 06点(UTC)
能見度: 4000
多云层高于1800英尺, 塔状积云.
阵雨

TAF: SOCA 150400Z 1506/1606 VRB02KT CAVOK PROB40 TEMPO 1506/1512 3000 SHRA BKN007 BKN015TCU FM151200 10010KT 9999 BKN023 TEMPO 1512/1522 2000 SHRA BKN010 BKN018TCU PROB30 TEMPO 1513/1518 VRB15G35KT 1000 TSRA BKN006 BKN013CB FM152300 VRB02KT 9999 SCT020 TEMPO 1605/1606 4000 SHRA BKN018TCU

超过4000个机场的气象观测和天气预报(METAR&TAF报告)。

可查询的气象台以黄色和红色小点在地图上表示。

将鼠标移到小点上方,可查看气象台名称。

然后点击查看天气观测和预报。

如需切换地图:点击带黑十字的绿色按钮放大地图;点击带横线的绿色按钮缩小地图;或者点击绿色箭头查看邻近地区的地图。


METAR-TAF: